Magdagaci, Russia
Current Conditions -  °F | °C
As of 11:30 AM on Thursday 23 Oct 2014 (Local Time) from UHBB Reporting Station
Clear Clear  
Wind Chill: 41°   Ceiling: Unl
Heat Index: 45°   Visibility: 4mi
Dew Point: 18°   Wind: 7mph
Humidity: 34%   Direction: 350°N
Pressure: 29.68"   Gusts: NA
Location:  53.47°N, 125.82°E
Report Text: UHBB 230230Z 35003MPS 280V030 6000 NSC 07/M08 Q1005 NOSIG RMKQFE736/0982 36090060
Loading
Personal Weather Stations






























Interactive Weather Map
Tropical Storm Tracking
New forecast layout! Learn more

10-Day Weather Forecast

Advertisements
Track Severe Weather on mobile